DKH1881 ZSPD-ZGGG
Flight info
| Callsign | DKH1881 |
|---|---|
| Flight time | 1h 45m |
| Altitude | 40100 |
| Route | NXD81D/17L NXD W131 AKDIM A470 DUBGO W134 ELNEX A599 PLT W19 OLPAB OLPAB3P |
| Aircraft | A333/H-SDE3GHIJ2J3J5M1RVWXY/LB2D1 |
Departure
| Time | 2026-05-05 13:45 |
|---|---|
| Airport | Shanghai Pudong International Airport (ZSPD) |
Arrival
| Time | 2026-05-05 15:31 |
|---|---|
| Airport | Guangzhou Baiyun International Airport (ZGGG) |
| Time | Latitude | Longitude | Altitude | Speed | Heading |
|---|---|---|---|---|---|
| 2026-05-05 13:21 | 31.14919 | 121.80708 | 26 ft | 0 kts | 72° |
| 2026-05-05 13:31 | 31.14918 | 121.80706 | 26 ft | 3 kts | 72° |
| 2026-05-05 13:31 | 31.14903 | 121.80634 | 26 ft | 6 kts | 111° |
| 2026-05-05 13:32 | 31.14915 | 121.80617 | 26 ft | 3 kts | 179° |
| 2026-05-05 13:32 | 31.14921 | 121.80621 | 26 ft | 3 kts | 163° |
| 2026-05-05 13:32 | 31.14913 | 121.80624 | 26 ft | 0 kts | 161° |
| 2026-05-05 13:36 | 31.14891 | 121.80632 | 26 ft | 12 kts | 162° |
| 2026-05-05 13:37 | 31.14761 | 121.80667 | 26 ft | 21 kts | 179° |
| 2026-05-05 13:37 | 31.14609 | 121.80668 | 26 ft | 21 kts | 167° |
| 2026-05-05 13:37 | 31.14575 | 121.80680 | 26 ft | 0 kts | 160° |
| 2026-05-05 13:37 | 31.14514 | 121.80705 | 26 ft | 16 kts | 162° |
| 2026-05-05 13:38 | 31.14379 | 121.80722 | 26 ft | 11 kts | 176° |
| 2026-05-05 13:38 | 31.14315 | 121.80694 | 26 ft | 11 kts | 236° |
| 2026-05-05 13:38 | 31.14277 | 121.80568 | 26 ft | 25 kts | 251° |
| 2026-05-05 13:38 | 31.14208 | 121.80322 | 27 ft | 30 kts | 252° |
| 2026-05-05 13:39 | 31.14145 | 121.80098 | 29 ft | 29 kts | 251° |
| 2026-05-05 13:39 | 31.14091 | 121.79904 | 28 ft | 15 kts | 253° |
| 2026-05-05 13:39 | 31.14059 | 121.79785 | 27 ft | 15 kts | 253° |
| 2026-05-05 13:39 | 31.14036 | 121.79662 | 27 ft | 15 kts | 258° |
| 2026-05-05 13:40 | 31.14089 | 121.79587 | 28 ft | 12 kts | 340° |
| 2026-05-05 13:40 | 31.14167 | 121.79557 | 29 ft | 14 kts | 343° |
| 2026-05-05 13:40 | 31.14307 | 121.79506 | 29 ft | 26 kts | 340° |
| 2026-05-05 13:40 | 31.14516 | 121.79427 | 29 ft | 36 kts | 341° |
| 2026-05-05 13:41 | 31.14736 | 121.79342 | 30 ft | 24 kts | 342° |
| 2026-05-05 13:41 | 31.14907 | 121.79279 | 28 ft | 26 kts | 342° |
| 2026-05-05 13:41 | 31.15081 | 121.79209 | 26 ft | 24 kts | 341° |
| 2026-05-05 13:41 | 31.15244 | 121.79150 | 25 ft | 24 kts | 341° |
| 2026-05-05 13:42 | 31.15407 | 121.79090 | 23 ft | 24 kts | 343° |
| 2026-05-05 13:42 | 31.15572 | 121.79028 | 24 ft | 24 kts | 342° |
| 2026-05-05 13:42 | 31.15727 | 121.78968 | 26 ft | 23 kts | 342° |
| 2026-05-05 13:42 | 31.15874 | 121.78913 | 26 ft | 13 kts | 341° |
| 2026-05-05 13:43 | 31.15960 | 121.78871 | 26 ft | 13 kts | 320° |
| 2026-05-05 13:43 | 31.15959 | 121.78809 | 26 ft | 5 kts | 249° |
| 2026-05-05 13:43 | 31.15954 | 121.78786 | 26 ft | 0 kts | 253° |
| 2026-05-05 13:43 | 31.15952 | 121.78781 | 26 ft | 5 kts | 253° |
| 2026-05-05 13:44 | 31.15914 | 121.78691 | 26 ft | 14 kts | 205° |
| 2026-05-05 13:44 | 31.15852 | 121.78700 | 26 ft | 0 kts | 162° |
| 2026-05-05 13:44 | 31.15849 | 121.78700 | 26 ft | 4 kts | 162° |
| 2026-05-05 13:44 | 31.15584 | 121.78803 | 26 ft | 81 kts | 161° |
| 2026-05-05 13:45 | 31.14804 | 121.79097 | 28 ft | 151 kts | 162° |
| 2026-05-05 13:45 | 31.13741 | 121.79568 | 609 ft | 164 kts | 158° |
| 2026-05-05 13:45 | 31.12645 | 121.79980 | 1529 ft | 169 kts | 174° |
| 2026-05-05 13:45 | 31.11499 | 121.80128 | 2309 ft | 173 kts | 165° |
| 2026-05-05 13:46 | 31.10273 | 121.80542 | 2874 ft | 193 kts | 164° |
| 2026-05-05 13:46 | 31.08902 | 121.81011 | 3479 ft | 213 kts | 163° |
| 2026-05-05 13:46 | 31.07412 | 121.81536 | 4125 ft | 232 kts | 163° |
| 2026-05-05 13:46 | 31.05801 | 121.82107 | 4768 ft | 251 kts | 162° |
| 2026-05-05 13:47 | 31.04046 | 121.82732 | 5533 ft | 267 kts | 162° |
| 2026-05-05 13:47 | 31.02204 | 121.83294 | 5938 ft | 279 kts | 172° |
| 2026-05-05 13:47 | 31.00297 | 121.83044 | 5853 ft | 275 kts | 200° |
| 2026-05-05 13:47 | 30.98725 | 121.81792 | 5909 ft | 277 kts | 227° |
| 2026-05-05 13:48 | 30.97800 | 121.79816 | 5904 ft | 278 kts | 254° |
| 2026-05-05 13:48 | 30.97516 | 121.77552 | 5915 ft | 278 kts | 258° |
| 2026-05-05 13:48 | 30.97033 | 121.75347 | 5903 ft | 278 kts | 253° |
| 2026-05-05 13:48 | 30.96478 | 121.73198 | 5894 ft | 277 kts | 252° |
| 2026-05-05 13:49 | 30.96310 | 121.70954 | 5903 ft | 283 kts | 278° |
| 2026-05-05 13:49 | 30.96749 | 121.68630 | 6800 ft | 291 kts | 281° |
| 2026-05-05 13:49 | 30.97163 | 121.66393 | 8111 ft | 282 kts | 282° |
| 2026-05-05 13:49 | 30.97582 | 121.64124 | 9095 ft | 285 kts | 282° |
| 2026-05-05 13:50 | 30.98005 | 121.61836 | 10123 ft | 288 kts | 282° |
| 2026-05-05 13:50 | 30.98445 | 121.59450 | 10491 ft | 315 kts | 282° |
| 2026-05-05 13:50 | 30.98947 | 121.56728 | 10487 ft | 352 kts | 282° |
| 2026-05-05 13:50 | 30.99482 | 121.53817 | 11178 ft | 364 kts | 282° |
| 2026-05-05 13:51 | 31.00014 | 121.50922 | 12182 ft | 363 kts | 282° |
| 2026-05-05 13:51 | 31.00550 | 121.48005 | 12947 ft | 366 kts | 282° |
| 2026-05-05 13:51 | 31.01101 | 121.45016 | 13643 ft | 373 kts | 282° |
| 2026-05-05 13:51 | 31.01648 | 121.42042 | 14462 ft | 373 kts | 282° |
| 2026-05-05 13:52 | 31.02203 | 121.39021 | 15224 ft | 376 kts | 282° |
| 2026-05-05 13:52 | 31.02758 | 121.35997 | 15999 ft | 377 kts | 282° |
| 2026-05-05 13:52 | 31.03315 | 121.32958 | 16716 ft | 380 kts | 282° |
| 2026-05-05 13:52 | 31.03874 | 121.29904 | 17435 ft | 381 kts | 282° |
| 2026-05-05 13:53 | 31.04433 | 121.26845 | 18098 ft | 385 kts | 282° |
| 2026-05-05 13:53 | 31.04995 | 121.23765 | 18680 ft | 390 kts | 282° |
| 2026-05-05 13:53 | 31.05568 | 121.20623 | 19336 ft | 393 kts | 282° |
| 2026-05-05 13:53 | 31.06137 | 121.17502 | 19928 ft | 396 kts | 282° |
| 2026-05-05 13:54 | 31.06685 | 121.14366 | 20483 ft | 400 kts | 280° |
| 2026-05-05 13:54 | 31.06642 | 121.11068 | 21048 ft | 408 kts | 262° |
| 2026-05-05 13:54 | 31.05882 | 121.07874 | 21665 ft | 412 kts | 255° |
| 2026-05-05 13:54 | 31.05070 | 121.04633 | 22208 ft | 416 kts | 256° |
| 2026-05-05 13:55 | 31.04264 | 121.01393 | 22711 ft | 421 kts | 256° |
| 2026-05-05 13:55 | 31.03445 | 120.98093 | 23278 ft | 424 kts | 256° |
| 2026-05-05 13:55 | 31.02616 | 120.94753 | 23803 ft | 428 kts | 256° |
| 2026-05-05 13:55 | 31.01784 | 120.91395 | 24322 ft | 431 kts | 256° |
| 2026-05-05 13:56 | 31.00948 | 120.88031 | 24842 ft | 434 kts | 256° |
| 2026-05-05 13:56 | 31.00098 | 120.84614 | 25340 ft | 437 kts | 256° |
| 2026-05-05 13:56 | 30.99247 | 120.81199 | 25808 ft | 440 kts | 256° |
| 2026-05-05 13:56 | 30.98386 | 120.77742 | 26299 ft | 443 kts | 256° |
| 2026-05-05 13:57 | 30.97517 | 120.74262 | 26737 ft | 446 kts | 256° |
| 2026-05-05 13:57 | 30.96636 | 120.70740 | 27193 ft | 449 kts | 256° |
| 2026-05-05 13:57 | 30.95754 | 120.67217 | 27642 ft | 452 kts | 256° |
| 2026-05-05 13:57 | 30.94857 | 120.63640 | 28117 ft | 455 kts | 256° |
| 2026-05-05 13:58 | 30.93954 | 120.60040 | 28535 ft | 458 kts | 256° |
| 2026-05-05 13:58 | 30.93051 | 120.56449 | 29058 ft | 456 kts | 256° |
| 2026-05-05 13:58 | 30.92148 | 120.52858 | 29315 ft | 461 kts | 256° |
| 2026-05-05 13:58 | 30.91220 | 120.49172 | 29520 ft | 466 kts | 256° |
| 2026-05-05 13:59 | 30.88435 | 120.42387 | 30313 ft | 472 kts | 233° |
| 2026-05-05 13:59 | 30.85970 | 120.39799 | 30634 ft | 479 kts | 218° |
| 2026-05-05 14:00 | 30.80486 | 120.35429 | 31801 ft | 469 kts | 219° |
| 2026-05-05 14:00 | 30.78735 | 120.33997 | 32186 ft | 466 kts | 218° |
| 2026-05-05 14:00 | 30.75185 | 120.31081 | 32779 ft | 464 kts | 218° |
| 2026-05-05 14:00 | 30.72498 | 120.28876 | 33254 ft | 462 kts | 218° |
| 2026-05-05 14:01 | 30.69833 | 120.26687 | 33736 ft | 459 kts | 218° |
| 2026-05-05 14:01 | 30.67235 | 120.24555 | 34114 ft | 458 kts | 219° |
| 2026-05-05 14:01 | 30.64596 | 120.22392 | 34552 ft | 455 kts | 219° |
| 2026-05-05 14:01 | 30.61996 | 120.20261 | 34929 ft | 455 kts | 219° |
| 2026-05-05 14:02 | 30.59403 | 120.18138 | 35328 ft | 454 kts | 219° |
| 2026-05-05 14:02 | 30.56793 | 120.16000 | 35724 ft | 453 kts | 219° |
| 2026-05-05 14:02 | 30.54258 | 120.13927 | 36164 ft | 451 kts | 219° |
| 2026-05-05 14:02 | 30.51691 | 120.11829 | 36512 ft | 449 kts | 219° |
| 2026-05-05 14:03 | 30.49140 | 120.09746 | 36853 ft | 449 kts | 219° |
| 2026-05-05 14:03 | 30.46591 | 120.07665 | 37182 ft | 448 kts | 219° |
| 2026-05-05 14:03 | 30.44036 | 120.05584 | 37564 ft | 446 kts | 219° |
| 2026-05-05 14:03 | 30.41380 | 120.03734 | 37829 ft | 449 kts | 214° |
| 2026-05-05 14:04 | 30.38677 | 120.01937 | 38219 ft | 447 kts | 214° |
| 2026-05-05 14:04 | 30.35998 | 120.00152 | 38586 ft | 446 kts | 215° |
| 2026-05-05 14:04 | 30.33284 | 119.98344 | 38882 ft | 446 kts | 214° |
| 2026-05-05 14:04 | 30.30566 | 119.96533 | 39173 ft | 446 kts | 215° |
| 2026-05-05 14:05 | 30.27886 | 119.94750 | 39449 ft | 446 kts | 214° |
| 2026-05-05 14:05 | 30.25185 | 119.92954 | 39757 ft | 445 kts | 214° |
| 2026-05-05 14:05 | 30.22463 | 119.91145 | 40109 ft | 441 kts | 215° |
| 2026-05-05 14:05 | 30.19785 | 119.89366 | 40039 ft | 439 kts | 214° |
| 2026-05-05 14:06 | 30.14489 | 119.85849 | 40092 ft | 444 kts | 215° |
| 2026-05-05 14:06 | 30.09111 | 119.82286 | 40091 ft | 447 kts | 214° |
| 2026-05-05 14:07 | 30.03764 | 119.78735 | 40096 ft | 445 kts | 215° |
| 2026-05-05 14:07 | 29.98386 | 119.75114 | 40088 ft | 446 kts | 215° |
| 2026-05-05 14:08 | 29.93039 | 119.71521 | 40095 ft | 446 kts | 215° |
| 2026-05-05 14:08 | 29.87645 | 119.67902 | 40109 ft | 447 kts | 215° |
| 2026-05-05 14:09 | 29.82443 | 119.64104 | 40117 ft | 444 kts | 219° |
| 2026-05-05 14:09 | 29.77359 | 119.60093 | 40135 ft | 443 kts | 219° |
| 2026-05-05 14:10 | 29.72275 | 119.56117 | 40168 ft | 442 kts | 219° |
| 2026-05-05 14:10 | 29.69744 | 119.54139 | 40064 ft | 442 kts | 219° |
| 2026-05-05 14:10 | 29.67195 | 119.52151 | 40247 ft | 442 kts | 219° |
| 2026-05-05 14:11 | 29.64617 | 119.50140 | 40064 ft | 445 kts | 219° |
| 2026-05-05 14:11 | 29.62219 | 119.47942 | 40059 ft | 433 kts | 230° |
| 2026-05-05 14:11 | 29.60240 | 119.45354 | 40185 ft | 432 kts | 233° |
| 2026-05-05 14:11 | 29.58192 | 119.42696 | 40062 ft | 437 kts | 232° |
| 2026-05-05 14:12 | 29.54085 | 119.37445 | 40055 ft | 436 kts | 232° |
| 2026-05-05 14:12 | 29.50026 | 119.32273 | 40095 ft | 437 kts | 231° |
| 2026-05-05 14:13 | 29.45981 | 119.27128 | 40123 ft | 436 kts | 231° |
| 2026-05-05 14:13 | 29.41915 | 119.21961 | 40113 ft | 437 kts | 231° |
| 2026-05-05 14:14 | 29.37823 | 119.16771 | 40101 ft | 438 kts | 232° |
| 2026-05-05 14:14 | 29.33750 | 119.11620 | 40099 ft | 438 kts | 231° |
| 2026-05-05 14:15 | 29.29648 | 119.06444 | 40101 ft | 438 kts | 231° |
| 2026-05-05 14:15 | 29.25566 | 119.01301 | 40102 ft | 437 kts | 231° |
| 2026-05-05 14:16 | 29.21461 | 118.96134 | 40104 ft | 437 kts | 231° |
| 2026-05-05 14:16 | 29.17374 | 118.91000 | 40108 ft | 438 kts | 232° |
| 2026-05-05 14:17 | 29.13262 | 118.85837 | 40106 ft | 438 kts | 232° |
| 2026-05-05 14:17 | 29.09166 | 118.80705 | 40106 ft | 438 kts | 232° |
| 2026-05-05 14:18 | 29.05078 | 118.75585 | 40099 ft | 438 kts | 232° |
| 2026-05-05 14:18 | 29.00970 | 118.70448 | 40092 ft | 438 kts | 232° |
| 2026-05-05 14:19 | 28.96884 | 118.65347 | 40094 ft | 438 kts | 232° |
| 2026-05-05 14:19 | 28.92763 | 118.60207 | 40098 ft | 440 kts | 232° |
| 2026-05-05 14:20 | 28.88614 | 118.55038 | 40097 ft | 440 kts | 232° |
| 2026-05-05 14:20 | 28.85175 | 118.50761 | 40099 ft | 440 kts | 232° |
| 2026-05-05 14:21 | 28.80339 | 118.44752 | 40096 ft | 440 kts | 232° |
| 2026-05-05 14:21 | 28.76216 | 118.39635 | 40094 ft | 441 kts | 232° |
| 2026-05-05 14:22 | 28.72053 | 118.34476 | 40101 ft | 442 kts | 232° |
| 2026-05-05 14:22 | 28.67904 | 118.29340 | 40098 ft | 442 kts | 232° |
| 2026-05-05 14:23 | 28.63748 | 118.24203 | 40103 ft | 442 kts | 232° |
| 2026-05-05 14:23 | 28.59563 | 118.19036 | 40112 ft | 443 kts | 232° |
| 2026-05-05 14:24 | 28.55418 | 118.13925 | 40116 ft | 441 kts | 232° |
| 2026-05-05 14:24 | 28.51231 | 118.08769 | 40115 ft | 442 kts | 232° |
| 2026-05-05 14:25 | 28.47051 | 118.03628 | 40103 ft | 442 kts | 232° |
| 2026-05-05 14:25 | 28.42885 | 117.98510 | 40103 ft | 443 kts | 232° |
| 2026-05-05 14:26 | 28.38640 | 117.93430 | 40112 ft | 443 kts | 231° |
| 2026-05-05 14:26 | 28.34390 | 117.88409 | 40113 ft | 443 kts | 231° |
| 2026-05-05 14:27 | 28.30091 | 117.83334 | 40107 ft | 444 kts | 231° |
| 2026-05-05 14:27 | 28.25821 | 117.78299 | 40101 ft | 444 kts | 231° |
| 2026-05-05 14:28 | 28.22247 | 117.74091 | 40096 ft | 444 kts | 231° |
| 2026-05-05 14:28 | 28.17241 | 117.68202 | 40097 ft | 445 kts | 231° |
| 2026-05-05 14:29 | 28.12931 | 117.63140 | 40114 ft | 444 kts | 232° |
| 2026-05-05 14:29 | 28.08668 | 117.58138 | 40114 ft | 445 kts | 232° |
| 2026-05-05 14:30 | 28.04361 | 117.53091 | 40099 ft | 445 kts | 232° |
| 2026-05-05 14:30 | 28.00060 | 117.48057 | 40099 ft | 446 kts | 232° |
| 2026-05-05 14:31 | 27.95762 | 117.43031 | 40113 ft | 445 kts | 232° |
| 2026-05-05 14:31 | 27.91474 | 117.38026 | 40123 ft | 444 kts | 232° |
| 2026-05-05 14:32 | 27.87164 | 117.33000 | 40129 ft | 446 kts | 231° |
| 2026-05-05 14:32 | 27.82829 | 117.27950 | 40133 ft | 445 kts | 231° |
| 2026-05-05 14:33 | 27.78507 | 117.22924 | 40161 ft | 444 kts | 232° |
| 2026-05-05 14:33 | 27.74190 | 117.17905 | 40111 ft | 445 kts | 232° |
| 2026-05-05 14:34 | 27.69874 | 117.12900 | 40122 ft | 445 kts | 232° |
| 2026-05-05 14:34 | 27.65547 | 117.07883 | 40126 ft | 446 kts | 232° |
| 2026-05-05 14:35 | 27.61168 | 117.02814 | 40138 ft | 446 kts | 232° |
| 2026-05-05 14:35 | 27.56787 | 116.97750 | 40146 ft | 445 kts | 232° |
| 2026-05-05 14:36 | 27.52408 | 116.92693 | 40141 ft | 445 kts | 232° |
| 2026-05-05 14:36 | 27.48081 | 116.87631 | 40125 ft | 445 kts | 232° |
| 2026-05-05 14:37 | 27.43761 | 116.82575 | 40281 ft | 445 kts | 232° |
| 2026-05-05 14:37 | 27.41633 | 116.80090 | 40743 ft | 440 kts | 232° |
| 2026-05-05 14:37 | 27.39524 | 116.77625 | 41053 ft | 439 kts | 233° |
| 2026-05-05 14:38 | 27.35274 | 116.72662 | 41022 ft | 442 kts | 232° |
| 2026-05-05 14:38 | 27.30990 | 116.67667 | 41014 ft | 442 kts | 233° |
| 2026-05-05 14:39 | 27.26743 | 116.62721 | 41004 ft | 442 kts | 233° |
| 2026-05-05 14:39 | 27.22467 | 116.57747 | 41001 ft | 442 kts | 233° |
| 2026-05-05 14:40 | 27.18271 | 116.52743 | 41003 ft | 440 kts | 234° |
| 2026-05-05 14:40 | 27.14141 | 116.47737 | 41005 ft | 440 kts | 234° |
| 2026-05-05 14:41 | 27.09965 | 116.42683 | 41011 ft | 440 kts | 234° |
| 2026-05-05 14:41 | 27.05798 | 116.37645 | 41012 ft | 440 kts | 234° |
| 2026-05-05 14:42 | 27.01667 | 116.32658 | 41032 ft | 441 kts | 234° |
| 2026-05-05 14:42 | 26.97519 | 116.27656 | 41032 ft | 439 kts | 234° |
| 2026-05-05 14:43 | 26.93370 | 116.22659 | 41031 ft | 439 kts | 234° |
| 2026-05-05 14:43 | 26.89218 | 116.17616 | 41022 ft | 440 kts | 234° |
| 2026-05-05 14:44 | 26.85760 | 116.13407 | 41006 ft | 440 kts | 234° |
| 2026-05-05 14:44 | 26.80961 | 116.07569 | 41016 ft | 439 kts | 234° |
| 2026-05-05 14:45 | 26.76807 | 116.02524 | 41010 ft | 438 kts | 234° |
| 2026-05-05 14:45 | 26.72677 | 115.97509 | 41006 ft | 439 kts | 234° |
| 2026-05-05 14:46 | 26.68574 | 115.92537 | 40995 ft | 439 kts | 235° |
| 2026-05-05 14:46 | 26.64429 | 115.87519 | 41003 ft | 439 kts | 234° |
| 2026-05-05 14:47 | 26.60305 | 115.82532 | 41020 ft | 437 kts | 234° |
| 2026-05-05 14:47 | 26.56197 | 115.77568 | 41003 ft | 437 kts | 235° |
| 2026-05-05 14:48 | 26.52025 | 115.72535 | 41000 ft | 440 kts | 234° |
| 2026-05-05 14:48 | 26.47914 | 115.67581 | 40987 ft | 439 kts | 235° |
| 2026-05-05 14:49 | 26.44450 | 115.63412 | 41012 ft | 439 kts | 235° |
| 2026-05-05 14:49 | 26.39601 | 115.57582 | 41006 ft | 438 kts | 235° |
| 2026-05-05 14:50 | 26.35460 | 115.52607 | 41007 ft | 437 kts | 235° |
| 2026-05-05 14:50 | 26.31337 | 115.47660 | 41006 ft | 438 kts | 235° |
| 2026-05-05 14:51 | 26.27179 | 115.42676 | 40998 ft | 439 kts | 235° |
| 2026-05-05 14:51 | 26.23036 | 115.37718 | 40990 ft | 437 kts | 235° |
| 2026-05-05 14:52 | 26.18893 | 115.32764 | 41002 ft | 440 kts | 235° |
| 2026-05-05 14:52 | 26.14691 | 115.27747 | 40994 ft | 440 kts | 235° |
| 2026-05-05 14:53 | 26.10556 | 115.22814 | 40986 ft | 438 kts | 235° |
| 2026-05-05 14:53 | 26.07069 | 115.18656 | 40989 ft | 439 kts | 235° |
| 2026-05-05 14:54 | 26.02212 | 115.12875 | 40991 ft | 439 kts | 235° |
| 2026-05-05 14:54 | 25.98052 | 115.07930 | 40996 ft | 438 kts | 235° |
| 2026-05-05 14:55 | 25.93862 | 115.02951 | 41004 ft | 440 kts | 235° |
| 2026-05-05 14:55 | 25.89679 | 114.97991 | 41007 ft | 440 kts | 235° |
| 2026-05-05 14:56 | 25.85496 | 114.93035 | 41005 ft | 441 kts | 235° |
| 2026-05-05 14:56 | 25.81141 | 114.88221 | 40978 ft | 454 kts | 224° |
| 2026-05-05 14:57 | 25.78269 | 114.86552 | 41015 ft | 473 kts | 208° |
| 2026-05-05 14:57 | 25.75032 | 114.85753 | 41018 ft | 486 kts | 195° |
| 2026-05-05 14:57 | 25.68427 | 114.84398 | 40992 ft | 478 kts | 201° |
| 2026-05-05 14:58 | 25.61924 | 114.82803 | 40990 ft | 478 kts | 201° |
| 2026-05-05 14:58 | 25.55469 | 114.81204 | 40990 ft | 478 kts | 201° |
| 2026-05-05 14:59 | 25.48938 | 114.79586 | 40995 ft | 480 kts | 201° |
| 2026-05-05 14:59 | 25.42435 | 114.77978 | 40998 ft | 480 kts | 201° |
| 2026-05-05 15:00 | 25.37001 | 114.76634 | 41008 ft | 480 kts | 201° |
| 2026-05-05 15:00 | 25.29380 | 114.74752 | 41007 ft | 480 kts | 201° |
| 2026-05-05 15:01 | 25.22923 | 114.73159 | 41003 ft | 479 kts | 201° |
| 2026-05-05 15:01 | 25.16392 | 114.71551 | 41011 ft | 480 kts | 201° |
| 2026-05-05 15:02 | 25.09836 | 114.69937 | 41014 ft | 480 kts | 201° |
| 2026-05-05 15:02 | 25.03322 | 114.68336 | 41026 ft | 479 kts | 201° |
| 2026-05-05 15:03 | 24.97929 | 114.67012 | 41032 ft | 479 kts | 201° |
| 2026-05-05 15:03 | 24.93607 | 114.65953 | 40342 ft | 475 kts | 201° |
| 2026-05-05 15:03 | 24.90408 | 114.65170 | 39235 ft | 464 kts | 202° |
| 2026-05-05 15:04 | 24.87329 | 114.64419 | 38743 ft | 452 kts | 202° |
| 2026-05-05 15:04 | 24.84245 | 114.63656 | 38032 ft | 455 kts | 202° |
| 2026-05-05 15:04 | 24.81170 | 114.62897 | 37422 ft | 457 kts | 202° |
| 2026-05-05 15:04 | 24.78040 | 114.62127 | 36768 ft | 459 kts | 202° |
| 2026-05-05 15:05 | 24.71788 | 114.60592 | 35516 ft | 461 kts | 202° |
| 2026-05-05 15:05 | 24.68835 | 114.59403 | 34893 ft | 443 kts | 216° |
| 2026-05-05 15:05 | 24.66181 | 114.57725 | 34317 ft | 440 kts | 218° |
| 2026-05-05 15:06 | 24.63558 | 114.56067 | 33735 ft | 440 kts | 218° |
| 2026-05-05 15:06 | 24.60880 | 114.54374 | 33058 ft | 442 kts | 218° |
| 2026-05-05 15:06 | 24.58214 | 114.52690 | 32326 ft | 446 kts | 217° |
| 2026-05-05 15:06 | 24.55543 | 114.51004 | 31557 ft | 449 kts | 217° |
| 2026-05-05 15:07 | 24.52877 | 114.49322 | 30866 ft | 450 kts | 217° |
| 2026-05-05 15:07 | 24.50151 | 114.47605 | 30229 ft | 449 kts | 217° |
| 2026-05-05 15:07 | 24.47439 | 114.45895 | 29634 ft | 447 kts | 217° |
| 2026-05-05 15:07 | 24.44759 | 114.44209 | 29026 ft | 444 kts | 217° |
| 2026-05-05 15:08 | 24.42078 | 114.42521 | 28367 ft | 442 kts | 217° |
| 2026-05-05 15:08 | 24.39364 | 114.40815 | 27699 ft | 439 kts | 216° |
| 2026-05-05 15:08 | 24.36641 | 114.39108 | 27071 ft | 435 kts | 216° |
| 2026-05-05 15:08 | 24.33888 | 114.37382 | 26506 ft | 430 kts | 216° |
| 2026-05-05 15:09 | 24.31207 | 114.35701 | 25989 ft | 424 kts | 216° |
| 2026-05-05 15:09 | 24.28563 | 114.34046 | 25482 ft | 418 kts | 216° |
| 2026-05-05 15:09 | 24.25975 | 114.32425 | 24980 ft | 413 kts | 216° |
| 2026-05-05 15:09 | 24.23390 | 114.30807 | 24437 ft | 408 kts | 216° |
| 2026-05-05 15:10 | 24.20885 | 114.29239 | 23870 ft | 405 kts | 215° |
| 2026-05-05 15:10 | 24.18413 | 114.27694 | 23296 ft | 402 kts | 215° |
| 2026-05-05 15:10 | 24.16013 | 114.26194 | 22726 ft | 400 kts | 215° |
| 2026-05-05 15:10 | 24.13591 | 114.24680 | 22144 ft | 397 kts | 215° |
| 2026-05-05 15:11 | 24.11170 | 114.23169 | 21571 ft | 394 kts | 215° |
| 2026-05-05 15:11 | 24.08812 | 114.21636 | 21014 ft | 386 kts | 220° |
| 2026-05-05 15:11 | 24.06904 | 114.19612 | 20468 ft | 373 kts | 234° |
| 2026-05-05 15:11 | 24.05180 | 114.17403 | 19932 ft | 369 kts | 234° |
| 2026-05-05 15:12 | 24.03510 | 114.15279 | 19423 ft | 365 kts | 234° |
| 2026-05-05 15:12 | 24.01848 | 114.13168 | 18921 ft | 360 kts | 234° |
| 2026-05-05 15:12 | 24.00224 | 114.11105 | 18433 ft | 356 kts | 234° |
| 2026-05-05 15:12 | 23.98590 | 114.09032 | 17939 ft | 353 kts | 234° |
| 2026-05-05 15:13 | 23.97008 | 114.07026 | 17456 ft | 349 kts | 234° |
| 2026-05-05 15:13 | 23.95440 | 114.05016 | 16987 ft | 346 kts | 234° |
| 2026-05-05 15:13 | 23.93901 | 114.03032 | 16513 ft | 344 kts | 234° |
| 2026-05-05 15:13 | 23.92369 | 114.01060 | 16035 ft | 340 kts | 234° |
| 2026-05-05 15:14 | 23.90848 | 113.99102 | 15550 ft | 337 kts | 234° |
| 2026-05-05 15:14 | 23.89325 | 113.97142 | 15050 ft | 334 kts | 233° |
| 2026-05-05 15:14 | 23.87817 | 113.95202 | 14545 ft | 331 kts | 233° |
| 2026-05-05 15:14 | 23.86309 | 113.93265 | 14031 ft | 329 kts | 233° |
| 2026-05-05 15:15 | 23.84870 | 113.91414 | 13522 ft | 326 kts | 233° |
| 2026-05-05 15:15 | 23.83413 | 113.89543 | 13016 ft | 323 kts | 233° |
| 2026-05-05 15:15 | 23.81971 | 113.87720 | 12845 ft | 315 kts | 232° |
| 2026-05-05 15:15 | 23.80500 | 113.85866 | 12877 ft | 323 kts | 232° |
| 2026-05-05 15:16 | 23.79015 | 113.84000 | 12854 ft | 323 kts | 232° |
| 2026-05-05 15:16 | 23.77532 | 113.82136 | 12843 ft | 322 kts | 232° |
| 2026-05-05 15:16 | 23.76075 | 113.80304 | 12831 ft | 322 kts | 232° |
| 2026-05-05 15:16 | 23.74603 | 113.78455 | 12821 ft | 321 kts | 232° |
| 2026-05-05 15:17 | 23.73165 | 113.76646 | 12821 ft | 321 kts | 232° |
| 2026-05-05 15:17 | 23.71676 | 113.74777 | 12816 ft | 321 kts | 232° |
| 2026-05-05 15:17 | 23.70233 | 113.72967 | 12813 ft | 320 kts | 232° |
| 2026-05-05 15:17 | 23.68837 | 113.71213 | 12809 ft | 321 kts | 232° |
| 2026-05-05 15:18 | 23.67462 | 113.69485 | 12807 ft | 321 kts | 232° |
| 2026-05-05 15:18 | 23.66108 | 113.67786 | 12804 ft | 320 kts | 232° |
| 2026-05-05 15:18 | 23.64740 | 113.66071 | 12796 ft | 320 kts | 232° |
| 2026-05-05 15:18 | 23.63372 | 113.64356 | 12803 ft | 320 kts | 232° |
| 2026-05-05 15:19 | 23.61995 | 113.62632 | 12797 ft | 321 kts | 232° |
| 2026-05-05 15:19 | 23.60617 | 113.60907 | 12796 ft | 321 kts | 232° |
| 2026-05-05 15:19 | 23.59214 | 113.59245 | 12789 ft | 325 kts | 225° |
| 2026-05-05 15:19 | 23.57233 | 113.57993 | 12765 ft | 332 kts | 203° |
| 2026-05-05 15:20 | 23.54992 | 113.57164 | 12643 ft | 335 kts | 203° |
| 2026-05-05 15:20 | 23.52780 | 113.56303 | 12113 ft | 336 kts | 203° |
| 2026-05-05 15:20 | 23.50608 | 113.55459 | 11637 ft | 333 kts | 203° |
| 2026-05-05 15:20 | 23.48449 | 113.54616 | 11179 ft | 329 kts | 202° |
| 2026-05-05 15:21 | 23.46313 | 113.53783 | 10746 ft | 325 kts | 203° |
| 2026-05-05 15:21 | 23.44259 | 113.52982 | 10437 ft | 317 kts | 202° |
| 2026-05-05 15:21 | 23.42214 | 113.52186 | 10389 ft | 315 kts | 203° |
| 2026-05-05 15:21 | 23.40179 | 113.51394 | 10280 ft | 305 kts | 203° |
| 2026-05-05 15:22 | 23.38378 | 113.50692 | 10179 ft | 293 kts | 203° |
| 2026-05-05 15:22 | 23.36818 | 113.50085 | 10093 ft | 284 kts | 203° |
| 2026-05-05 15:22 | 23.35340 | 113.49509 | 10013 ft | 275 kts | 203° |
| 2026-05-05 15:22 | 23.33834 | 113.48923 | 9735 ft | 275 kts | 203° |
| 2026-05-05 15:23 | 23.32370 | 113.48351 | 9264 ft | 281 kts | 202° |
| 2026-05-05 15:23 | 23.30824 | 113.47750 | 8821 ft | 286 kts | 202° |
| 2026-05-05 15:23 | 23.29257 | 113.47141 | 8372 ft | 290 kts | 202° |
| 2026-05-05 15:23 | 23.27658 | 113.46518 | 7911 ft | 294 kts | 202° |
| 2026-05-05 15:24 | 23.26082 | 113.45906 | 7448 ft | 297 kts | 201° |
| 2026-05-05 15:24 | 23.24378 | 113.45245 | 7293 ft | 287 kts | 201° |
| 2026-05-05 15:24 | 23.22875 | 113.44663 | 7301 ft | 274 kts | 202° |
| 2026-05-05 15:24 | 23.21347 | 113.44070 | 7277 ft | 262 kts | 202° |
| 2026-05-05 15:25 | 23.19714 | 113.43436 | 7253 ft | 250 kts | 202° |
| 2026-05-05 15:25 | 23.18167 | 113.42662 | 7158 ft | 238 kts | 220° |
| 2026-05-05 15:25 | 23.17204 | 113.41260 | 7027 ft | 227 kts | 252° |
| 2026-05-05 15:25 | 23.17079 | 113.39545 | 6632 ft | 234 kts | 280° |
| 2026-05-05 15:26 | 23.17723 | 113.37785 | 6011 ft | 250 kts | 297° |
| 2026-05-05 15:26 | 23.18637 | 113.36059 | 5431 ft | 262 kts | 300° |
| 2026-05-05 15:26 | 23.19634 | 113.34350 | 4823 ft | 266 kts | 301° |
| 2026-05-05 15:26 | 23.20608 | 113.32730 | 4291 ft | 249 kts | 301° |
| 2026-05-05 15:27 | 23.21484 | 113.31282 | 3840 ft | 234 kts | 301° |
| 2026-05-05 15:27 | 23.22337 | 113.29874 | 3470 ft | 232 kts | 301° |
| 2026-05-05 15:27 | 23.23228 | 113.28539 | 3035 ft | 233 kts | 314° |
| 2026-05-05 15:27 | 23.24526 | 113.27721 | 2638 ft | 234 kts | 345° |
| 2026-05-05 15:28 | 23.26094 | 113.27728 | 2284 ft | 228 kts | 17° |
| 2026-05-05 15:28 | 23.27558 | 113.28243 | 1930 ft | 212 kts | 19° |
| 2026-05-05 15:28 | 23.28900 | 113.28610 | 1639 ft | 180 kts | 14° |
| 2026-05-05 15:28 | 23.30040 | 113.28912 | 1480 ft | 153 kts | 16° |
| 2026-05-05 15:29 | 23.31007 | 113.29173 | 1234 ft | 137 kts | 15° |
| 2026-05-05 15:29 | 23.31931 | 113.29425 | 1068 ft | 134 kts | 16° |
| 2026-05-05 15:29 | 23.32849 | 113.29672 | 885 ft | 132 kts | 15° |
| 2026-05-05 15:29 | 23.33760 | 113.29914 | 710 ft | 131 kts | 16° |
| 2026-05-05 15:30 | 23.34668 | 113.30165 | 530 ft | 130 kts | 13° |
| 2026-05-05 15:30 | 23.35591 | 113.30393 | 353 ft | 132 kts | 12° |
| 2026-05-05 15:30 | 23.36494 | 113.30647 | 208 ft | 133 kts | 13° |
| 2026-05-05 15:30 | 23.37380 | 113.30895 | 64 ft | 125 kts | 14° |
| 2026-05-05 15:31 | 23.38101 | 113.31079 | 59 ft | 75 kts | 14° |
| 2026-05-05 15:31 | 23.38454 | 113.31176 | 59 ft | 42 kts | 13° |
| 2026-05-05 15:31 | 23.38670 | 113.31199 | 59 ft | 28 kts | 353° |
| 2026-05-05 15:31 | 23.38828 | 113.31161 | 59 ft | 16 kts | 345° |
| 2026-05-05 15:32 | 23.38934 | 113.31135 | 59 ft | 15 kts | 347° |
| 2026-05-05 15:32 | 23.39037 | 113.31132 | 59 ft | 14 kts | 13° |
| 2026-05-05 15:32 | 23.39136 | 113.31157 | 59 ft | 14 kts | 13° |
| 2026-05-05 15:32 | 23.39240 | 113.31185 | 59 ft | 16 kts | 14° |
| 2026-05-05 15:33 | 23.39415 | 113.31233 | 59 ft | 32 kts | 14° |
| 2026-05-05 15:33 | 23.39652 | 113.31296 | 59 ft | 35 kts | 13° |
| 2026-05-05 15:33 | 23.39749 | 113.31245 | 59 ft | 16 kts | 284° |
| 2026-05-05 15:33 | 23.39778 | 113.31120 | 59 ft | 17 kts | 283° |
| 2026-05-05 15:34 | 23.39798 | 113.31036 | 59 ft | 17 kts | 286° |